sensor_id;sensor_type;location;lat;lon;timestamp;P1;durP1;ratioP1;P2;durP2;ratioP2
50769;SDS011;36740;48.698;11.472;2022-12-08T00:00:43;16.48;;;10.52;;
50769;SDS011;36740;48.698;11.472;2022-12-08T00:03:28;27.70;;;11.82;;
50769;SDS011;36740;48.698;11.472;2022-12-08T00:06:20;13.73;;;8.38;;
50769;SDS011;36740;48.698;11.472;2022-12-08T00:09:36;21.23;;;11.77;;
50769;SDS011;36740;48.698;11.472;2022-12-08T00:12:22;28.40;;;16.00;;
50769;SDS011;36740;48.698;11.472;2022-12-08T00:15:07;28.50;;;16.80;;
50769;SDS011;36740;48.698;11.472;2022-12-08T00:17:53;25.80;;;12.90;;
50769;SDS011;36740;48.698;11.472;2022-12-08T00:20:39;34.78;;;18.52;;
50769;SDS011;36740;48.698;11.472;2022-12-08T00:23:25;26.85;;;14.90;;
50769;SDS011;36740;48.698;11.472;2022-12-08T00:26:10;20.40;;;11.57;;
50769;SDS011;36740;48.698;11.472;2022-12-08T00:28:56;18.73;;;10.70;;
50769;SDS011;36740;48.698;11.472;2022-12-08T00:31:42;13.70;;;7.53;;
50769;SDS011;36740;48.698;11.472;2022-12-08T00:34:27;16.95;;;9.57;;
50769;SDS011;36740;48.698;11.472;2022-12-08T00:37:13;14.95;;;9.30;;
50769;SDS011;36740;48.698;11.472;2022-12-08T00:39:58;13.55;;;9.63;;
50769;SDS011;36740;48.698;11.472;2022-12-08T00:42:44;13.88;;;11.07;;
50769;SDS011;36740;48.698;11.472;2022-12-08T00:45:30;14.48;;;10.80;;
50769;SDS011;36740;48.698;11.472;2022-12-08T00:48:15;19.60;;;10.95;;
50769;SDS011;36740;48.698;11.472;2022-12-08T00:51:01;21.90;;;11.60;;
50769;SDS011;36740;48.698;11.472;2022-12-08T00:53:46;12.30;;;9.30;;
50769;SDS011;36740;48.698;11.472;2022-12-08T00:56:32;14.55;;;8.13;;
50769;SDS011;36740;48.698;11.472;2022-12-08T00:59:18;15.18;;;10.18;;
50769;SDS011;36740;48.698;11.472;2022-12-08T01:02:04;20.35;;;11.57;;
50769;SDS011;36740;48.698;11.472;2022-12-08T01:04:49;18.90;;;11.68;;
50769;SDS011;36740;48.698;11.472;2022-12-08T01:07:35;19.30;;;8.52;;
50769;SDS011;36740;48.698;11.472;2022-12-08T01:10:21;18.25;;;12.32;;
50769;SDS011;36740;48.698;11.472;2022-12-08T01:13:06;15.27;;;9.00;;
50769;SDS011;36740;48.698;11.472;2022-12-08T01:15:52;15.48;;;9.93;;
50769;SDS011;36740;48.698;11.472;2022-12-08T01:18:38;14.95;;;9.57;;
50769;SDS011;36740;48.698;11.472;2022-12-08T01:21:23;16.05;;;10.55;;
50769;SDS011;36740;48.698;11.472;2022-12-08T01:24:10;12.40;;;8.80;;
50769;SDS011;36740;48.698;11.472;2022-12-08T01:26:56;18.90;;;9.70;;
50769;SDS011;36740;48.698;11.472;2022-12-08T01:29:42;12.68;;;8.38;;
50769;SDS011;36740;48.698;11.472;2022-12-08T01:32:27;15.73;;;8.25;;
50769;SDS011;36740;48.698;11.472;2022-12-08T01:35:13;18.00;;;11.25;;
50769;SDS011;36740;48.698;11.472;2022-12-08T01:37:59;18.40;;;11.15;;
50769;SDS011;36740;48.698;11.472;2022-12-08T01:40:44;15.55;;;10.63;;
50769;SDS011;36740;48.698;11.472;2022-12-08T01:46:36;15.15;;;9.15;;
50769;SDS011;36740;48.698;11.472;2022-12-08T01:49:25;13.40;;;9.25;;
50769;SDS011;36740;48.698;11.472;2022-12-08T01:52:15;16.75;;;9.20;;
50769;SDS011;36740;48.698;11.472;2022-12-08T01:55:06;15.82;;;10.00;;
50769;SDS011;36740;48.698;11.472;2022-12-08T01:57:55;14.32;;;8.93;;
50769;SDS011;36740;48.698;11.472;2022-12-08T02:00:42;16.10;;;9.52;;
50769;SDS011;36740;48.698;11.472;2022-12-08T02:03:38;17.90;;;11.18;;
50769;SDS011;36740;48.698;11.472;2022-12-08T02:06:26;12.63;;;7.78;;
50769;SDS011;36740;48.698;11.472;2022-12-08T02:09:12;18.83;;;11.18;;
50769;SDS011;36740;48.698;11.472;2022-12-08T02:11:58;16.60;;;9.85;;
50769;SDS011;36740;48.698;11.472;2022-12-08T02:14:44;13.82;;;8.18;;
50769;SDS011;36740;48.698;11.472;2022-12-08T02:17:36;13.32;;;8.20;;
50769;SDS011;36740;48.698;11.472;2022-12-08T02:23:26;11.55;;;8.02;;
50769;SDS011;36740;48.698;11.472;2022-12-08T02:32:12;13.20;;;8.38;;
50769;SDS011;36740;48.698;11.472;2022-12-08T02:37:55;13.60;;;7.85;;
50769;SDS011;36740;48.698;11.472;2022-12-08T02:40:46;10.35;;;7.63;;
50769;SDS011;36740;48.698;11.472;2022-12-08T02:43:35;13.63;;;9.32;;
50769;SDS011;36740;48.698;11.472;2022-12-08T02:46:30;10.85;;;7.28;;
50769;SDS011;36740;48.698;11.472;2022-12-08T02:49:17;13.18;;;8.20;;
50769;SDS011;36740;48.698;11.472;2022-12-08T02:54:58;13.50;;;8.20;;
50769;SDS011;36740;48.698;11.472;2022-12-08T02:57:55;17.38;;;9.82;;
50769;SDS011;36740;48.698;11.472;2022-12-08T03:03:31;19.20;;;9.73;;
50769;SDS011;36740;48.698;11.472;2022-12-08T03:15:08;13.10;;;7.40;;
50769;SDS011;36740;48.698;11.472;2022-12-08T03:17:55;17.95;;;11.23;;
50769;SDS011;36740;48.698;11.472;2022-12-08T03:20:41;17.98;;;9.52;;
50769;SDS011;36740;48.698;11.472;2022-12-08T03:23:28;13.05;;;8.52;;
50769;SDS011;36740;48.698;11.472;2022-12-08T03:26:33;17.17;;;8.68;;
50769;SDS011;36740;48.698;11.472;2022-12-08T03:29:20;14.90;;;10.10;;
50769;SDS011;36740;48.698;11.472;2022-12-08T03:35:16;15.48;;;10.88;;
50769;SDS011;36740;48.698;11.472;2022-12-08T03:38:03;17.42;;;10.25;;
50769;SDS011;36740;48.698;11.472;2022-12-08T03:40:49;13.57;;;9.68;;
50769;SDS011;36740;48.698;11.472;2022-12-08T03:43:55;13.95;;;10.15;;
50769;SDS011;36740;48.698;11.472;2022-12-08T03:46:43;15.85;;;9.63;;
50769;SDS011;36740;48.698;11.472;2022-12-08T03:49:30;16.75;;;8.32;;
50769;SDS011;36740;48.698;11.472;2022-12-08T03:52:15;15.63;;;10.02;;
50769;SDS011;36740;48.698;11.472;2022-12-08T03:55:01;14.05;;;10.60;;
50769;SDS011;36740;48.698;11.472;2022-12-08T03:57:47;19.42;;;10.15;;
50769;SDS011;36740;48.698;11.472;2022-12-08T04:00:32;19.05;;;8.68;;
50769;SDS011;36740;48.698;11.472;2022-12-08T04:03:18;14.45;;;9.30;;
50769;SDS011;36740;48.698;11.472;2022-12-08T04:06:04;14.45;;;8.98;;
50769;SDS011;36740;48.698;11.472;2022-12-08T04:08:50;15.90;;;9.32;;
50769;SDS011;36740;48.698;11.472;2022-12-08T04:11:36;16.45;;;9.15;;
50769;SDS011;36740;48.698;11.472;2022-12-08T04:14:22;16.88;;;11.43;;
50769;SDS011;36740;48.698;11.472;2022-12-08T04:17:07;13.73;;;7.80;;
50769;SDS011;36740;48.698;11.472;2022-12-08T04:19:53;19.75;;;10.50;;
50769;SDS011;36740;48.698;11.472;2022-12-08T04:22:38;15.02;;;8.52;;
50769;SDS011;36740;48.698;11.472;2022-12-08T04:25:24;19.52;;;12.60;;
50769;SDS011;36740;48.698;11.472;2022-12-08T04:28:10;12.52;;;9.85;;
50769;SDS011;36740;48.698;11.472;2022-12-08T04:30:57;16.55;;;9.20;;
50769;SDS011;36740;48.698;11.472;2022-12-08T04:33:43;13.52;;;9.55;;
50769;SDS011;36740;48.698;11.472;2022-12-08T04:36:29;13.27;;;9.05;;
50769;SDS011;36740;48.698;11.472;2022-12-08T04:39:15;14.85;;;10.13;;
50769;SDS011;36740;48.698;11.472;2022-12-08T04:42:01;16.55;;;9.05;;
50769;SDS011;36740;48.698;11.472;2022-12-08T04:44:47;15.48;;;9.80;;
50769;SDS011;36740;48.698;11.472;2022-12-08T04:47:32;15.57;;;10.07;;
50769;SDS011;36740;48.698;11.472;2022-12-08T04:50:18;17.95;;;9.15;;
50769;SDS011;36740;48.698;11.472;2022-12-08T04:53:03;20.27;;;10.98;;
50769;SDS011;36740;48.698;11.472;2022-12-08T04:55:49;21.15;;;11.65;;
50769;SDS011;36740;48.698;11.472;2022-12-08T04:58:35;20.58;;;11.27;;
50769;SDS011;36740;48.698;11.472;2022-12-08T05:01:20;15.63;;;11.07;;
50769;SDS011;36740;48.698;11.472;2022-12-08T05:04:06;14.75;;;9.95;;
50769;SDS011;36740;48.698;11.472;2022-12-08T05:06:52;19.58;;;9.68;;
50769;SDS011;36740;48.698;11.472;2022-12-08T05:09:37;22.25;;;14.40;;
50769;SDS011;36740;48.698;11.472;2022-12-08T05:12:23;18.35;;;10.63;;
50769;SDS011;36740;48.698;11.472;2022-12-08T05:15:08;12.27;;;8.95;;
50769;SDS011;36740;48.698;11.472;2022-12-08T05:17:54;15.98;;;11.15;;
50769;SDS011;36740;48.698;11.472;2022-12-08T05:20:40;11.45;;;8.07;;
50769;SDS011;36740;48.698;11.472;2022-12-08T05:23:26;22.75;;;12.27;;
50769;SDS011;36740;48.698;11.472;2022-12-08T05:26:11;14.05;;;10.48;;
50769;SDS011;36740;48.698;11.472;2022-12-08T05:28:57;22.83;;;11.55;;
50769;SDS011;36740;48.698;11.472;2022-12-08T05:31:43;16.80;;;10.57;;
50769;SDS011;36740;48.698;11.472;2022-12-08T05:34:28;17.60;;;10.45;;
50769;SDS011;36740;48.698;11.472;2022-12-08T05:37:14;15.80;;;8.73;;
50769;SDS011;36740;48.698;11.472;2022-12-08T05:40:00;11.35;;;8.00;;
50769;SDS011;36740;48.698;11.472;2022-12-08T05:42:45;15.07;;;9.40;;
50769;SDS011;36740;48.698;11.472;2022-12-08T05:45:31;15.85;;;12.10;;
50769;SDS011;36740;48.698;11.472;2022-12-08T05:48:17;14.88;;;9.02;;
50769;SDS011;36740;48.698;11.472;2022-12-08T05:51:03;21.35;;;10.70;;
50769;SDS011;36740;48.698;11.472;2022-12-08T05:53:49;22.67;;;10.15;;
50769;SDS011;36740;48.698;11.472;2022-12-08T05:56:35;14.60;;;9.13;;
50769;SDS011;36740;48.698;11.472;2022-12-08T05:59:21;16.27;;;10.20;;
50769;SDS011;36740;48.698;11.472;2022-12-08T06:02:07;21.65;;;9.40;;
50769;SDS011;36740;48.698;11.472;2022-12-08T06:04:53;25.67;;;9.20;;
50769;SDS011;36740;48.698;11.472;2022-12-08T06:07:38;20.10;;;9.65;;
50769;SDS011;36740;48.698;11.472;2022-12-08T06:10:24;13.35;;;9.63;;
50769;SDS011;36740;48.698;11.472;2022-12-08T06:13:10;17.08;;;9.35;;
50769;SDS011;36740;48.698;11.472;2022-12-08T06:15:55;19.55;;;9.60;;
50769;SDS011;36740;48.698;11.472;2022-12-08T06:18:47;13.73;;;8.18;;
50769;SDS011;36740;48.698;11.472;2022-12-08T06:21:33;17.67;;;8.77;;
50769;SDS011;36740;48.698;11.472;2022-12-08T06:24:18;21.30;;;11.00;;
50769;SDS011;36740;48.698;11.472;2022-12-08T06:27:04;27.13;;;9.63;;
50769;SDS011;36740;48.698;11.472;2022-12-08T06:29:50;16.30;;;10.95;;
50769;SDS011;36740;48.698;11.472;2022-12-08T06:32:35;21.98;;;12.73;;
50769;SDS011;36740;48.698;11.472;2022-12-08T06:35:21;15.82;;;10.15;;
50769;SDS011;36740;48.698;11.472;2022-12-08T06:38:07;16.20;;;10.60;;
50769;SDS011;36740;48.698;11.472;2022-12-08T06:40:54;15.50;;;9.60;;
50769;SDS011;36740;48.698;11.472;2022-12-08T06:43:40;16.30;;;10.85;;
50769;SDS011;36740;48.698;11.472;2022-12-08T06:46:25;14.50;;;8.02;;
50769;SDS011;36740;48.698;11.472;2022-12-08T06:49:11;16.67;;;10.18;;
50769;SDS011;36740;48.698;11.472;2022-12-08T06:51:57;15.80;;;7.68;;
50769;SDS011;36740;48.698;11.472;2022-12-08T06:54:43;32.72;;;8.82;;
50769;SDS011;36740;48.698;11.472;2022-12-08T06:57:29;13.82;;;11.23;;
50769;SDS011;36740;48.698;11.472;2022-12-08T07:00:15;14.38;;;10.75;;
50769;SDS011;36740;48.698;11.472;2022-12-08T07:03:00;16.75;;;9.95;;
50769;SDS011;36740;48.698;11.472;2022-12-08T07:05:46;18.40;;;10.98;;
50769;SDS011;36740;48.698;11.472;2022-12-08T07:08:32;15.10;;;12.00;;
50769;SDS011;36740;48.698;11.472;2022-12-08T07:11:18;19.75;;;15.25;;
50769;SDS011;36740;48.698;11.472;2022-12-08T07:14:04;47.05;;;23.90;;
50769;SDS011;36740;48.698;11.472;2022-12-08T07:16:50;21.38;;;15.73;;
50769;SDS011;36740;48.698;11.472;2022-12-08T07:19:36;20.92;;;13.23;;
50769;SDS011;36740;48.698;11.472;2022-12-08T07:22:21;26.70;;;14.43;;
50769;SDS011;36740;48.698;11.472;2022-12-08T07:25:07;24.13;;;16.85;;
50769;SDS011;36740;48.698;11.472;2022-12-08T07:27:53;41.17;;;17.00;;
50769;SDS011;36740;48.698;11.472;2022-12-08T07:30:38;25.45;;;13.70;;
50769;SDS011;36740;48.698;11.472;2022-12-08T07:33:24;34.38;;;14.07;;
50769;SDS011;36740;48.698;11.472;2022-12-08T07:36:10;44.72;;;18.10;;
50769;SDS011;36740;48.698;11.472;2022-12-08T07:38:56;37.72;;;17.48;;
50769;SDS011;36740;48.698;11.472;2022-12-08T07:41:41;50.25;;;19.48;;
50769;SDS011;36740;48.698;11.472;2022-12-08T07:44:27;26.88;;;14.23;;
50769;SDS011;36740;48.698;11.472;2022-12-08T07:47:12;22.17;;;15.73;;
50769;SDS011;36740;48.698;11.472;2022-12-08T07:49:58;42.40;;;16.50;;
50769;SDS011;36740;48.698;11.472;2022-12-08T07:52:44;42.67;;;14.25;;
50769;SDS011;36740;48.698;11.472;2022-12-08T07:55:29;82.53;;;16.27;;
50769;SDS011;36740;48.698;11.472;2022-12-08T07:58:15;21.80;;;13.40;;
50769;SDS011;36740;48.698;11.472;2022-12-08T08:01:00;35.70;;;15.73;;
50769;SDS011;36740;48.698;11.472;2022-12-08T08:03:46;59.47;;;14.27;;
50769;SDS011;36740;48.698;11.472;2022-12-08T08:06:33;29.00;;;13.25;;
50769;SDS011;36740;48.698;11.472;2022-12-08T08:09:18;41.78;;;11.30;;
50769;SDS011;36740;48.698;11.472;2022-12-08T08:12:04;50.47;;;11.35;;
50769;SDS011;36740;48.698;11.472;2022-12-08T08:14:50;55.60;;;13.52;;
50769;SDS011;36740;48.698;11.472;2022-12-08T08:17:36;44.47;;;10.57;;
50769;SDS011;36740;48.698;11.472;2022-12-08T08:20:21;28.58;;;13.35;;
50769;SDS011;36740;48.698;11.472;2022-12-08T08:23:07;48.70;;;12.88;;
50769;SDS011;36740;48.698;11.472;2022-12-08T08:25:53;29.45;;;11.57;;
50769;SDS011;36740;48.698;11.472;2022-12-08T08:28:39;37.10;;;11.82;;
50769;SDS011;36740;48.698;11.472;2022-12-08T08:31:25;42.70;;;12.38;;
50769;SDS011;36740;48.698;11.472;2022-12-08T08:34:11;23.48;;;8.98;;
50769;SDS011;36740;48.698;11.472;2022-12-08T08:36:56;21.20;;;12.57;;
50769;SDS011;36740;48.698;11.472;2022-12-08T08:39:42;22.63;;;12.35;;
50769;SDS011;36740;48.698;11.472;2022-12-08T08:42:28;49.50;;;12.38;;
50769;SDS011;36740;48.698;11.472;2022-12-08T08:45:13;34.47;;;10.85;;
50769;SDS011;36740;48.698;11.472;2022-12-08T08:47:59;57.15;;;12.70;;
50769;SDS011;36740;48.698;11.472;2022-12-08T08:50:45;27.58;;;10.88;;
50769;SDS011;36740;48.698;11.472;2022-12-08T08:53:30;18.70;;;9.18;;
50769;SDS011;36740;48.698;11.472;2022-12-08T08:56:17;17.33;;;8.85;;
50769;SDS011;36740;48.698;11.472;2022-12-08T08:59:03;14.98;;;9.13;;
50769;SDS011;36740;48.698;11.472;2022-12-08T09:01:49;15.32;;;8.88;;
50769;SDS011;36740;48.698;11.472;2022-12-08T09:04:35;39.22;;;10.23;;
50769;SDS011;36740;48.698;11.472;2022-12-08T09:07:20;45.70;;;9.63;;
50769;SDS011;36740;48.698;11.472;2022-12-08T09:10:06;16.55;;;9.93;;
50769;SDS011;36740;48.698;11.472;2022-12-08T09:12:52;38.83;;;11.13;;
50769;SDS011;36740;48.698;11.472;2022-12-08T09:15:37;32.90;;;8.73;;
50769;SDS011;36740;48.698;11.472;2022-12-08T09:18:23;31.38;;;10.88;;
50769;SDS011;36740;48.698;11.472;2022-12-08T09:21:10;57.30;;;16.95;;
50769;SDS011;36740;48.698;11.472;2022-12-08T09:23:57;40.58;;;11.52;;
50769;SDS011;36740;48.698;11.472;2022-12-08T09:26:43;14.95;;;9.15;;
50769;SDS011;36740;48.698;11.472;2022-12-08T09:29:29;33.92;;;9.60;;
50769;SDS011;36740;48.698;11.472;2022-12-08T09:32:15;14.90;;;10.18;;
50769;SDS011;36740;48.698;11.472;2022-12-08T09:35:00;21.30;;;9.95;;
50769;SDS011;36740;48.698;11.472;2022-12-08T09:37:46;31.63;;;12.45;;
50769;SDS011;36740;48.698;11.472;2022-12-08T09:40:34;16.95;;;8.38;;
50769;SDS011;36740;48.698;11.472;2022-12-08T09:46:08;12.40;;;8.25;;
50769;SDS011;36740;48.698;11.472;2022-12-08T09:48:55;23.08;;;11.95;;
50769;SDS011;36740;48.698;11.472;2022-12-08T09:51:42;13.25;;;7.30;;
50769;SDS011;36740;48.698;11.472;2022-12-08T09:54:35;15.88;;;8.80;;
50769;SDS011;36740;48.698;11.472;2022-12-08T09:57:20;17.02;;;8.85;;
50769;SDS011;36740;48.698;11.472;2022-12-08T10:00:09;15.85;;;9.80;;
50769;SDS011;36740;48.698;11.472;2022-12-08T10:02:56;31.23;;;9.88;;
50769;SDS011;36740;48.698;11.472;2022-12-08T10:05:56;24.52;;;10.90;;
50769;SDS011;36740;48.698;11.472;2022-12-08T10:14:34;33.20;;;13.90;;
50769;SDS011;36740;48.698;11.472;2022-12-08T10:17:23;32.63;;;11.35;;
50769;SDS011;36740;48.698;11.472;2022-12-08T10:23:00;20.90;;;10.48;;
50769;SDS011;36740;48.698;11.472;2022-12-08T10:25:51;33.10;;;12.88;;
50769;SDS011;36740;48.698;11.472;2022-12-08T10:28:37;17.15;;;10.07;;
50769;SDS011;36740;48.698;11.472;2022-12-08T10:31:23;21.05;;;13.32;;
50769;SDS011;36740;48.698;11.472;2022-12-08T10:34:19;20.75;;;10.23;;
50769;SDS011;36740;48.698;11.472;2022-12-08T10:37:10;18.83;;;11.57;;
50769;SDS011;36740;48.698;11.472;2022-12-08T10:40:02;14.88;;;11.68;;
50769;SDS011;36740;48.698;11.472;2022-12-08T10:45:38;20.10;;;11.93;;
50769;SDS011;36740;48.698;11.472;2022-12-08T10:48:27;20.52;;;15.80;;
50769;SDS011;36740;48.698;11.472;2022-12-08T10:51:27;18.17;;;12.77;;
50769;SDS011;36740;48.698;11.472;2022-12-08T10:54:25;21.53;;;11.87;;
50769;SDS011;36740;48.698;11.472;2022-12-08T10:57:15;28.48;;;14.82;;
50769;SDS011;36740;48.698;11.472;2022-12-08T11:00:04;17.60;;;12.82;;
50769;SDS011;36740;48.698;11.472;2022-12-08T11:02:57;21.25;;;14.90;;
50769;SDS011;36740;48.698;11.472;2022-12-08T11:05:44;45.33;;;20.00;;
50769;SDS011;36740;48.698;11.472;2022-12-08T11:08:29;22.10;;;13.57;;
50769;SDS011;36740;48.698;11.472;2022-12-08T11:11:15;28.02;;;15.85;;
50769;SDS011;36740;48.698;11.472;2022-12-08T11:14:03;50.58;;;15.13;;
50769;SDS011;36740;48.698;11.472;2022-12-08T11:16:51;24.95;;;13.27;;
50769;SDS011;36740;48.698;11.472;2022-12-08T11:19:39;17.05;;;12.68;;
50769;SDS011;36740;48.698;11.472;2022-12-08T11:22:26;23.25;;;13.00;;
50769;SDS011;36740;48.698;11.472;2022-12-08T11:25:16;20.40;;;14.75;;
50769;SDS011;36740;48.698;11.472;2022-12-08T11:28:03;25.75;;;13.30;;
50769;SDS011;36740;48.698;11.472;2022-12-08T11:30:52;22.17;;;14.43;;
50769;SDS011;36740;48.698;11.472;2022-12-08T11:33:39;26.70;;;15.85;;
50769;SDS011;36740;48.698;11.472;2022-12-08T11:36:26;20.17;;;11.07;;
50769;SDS011;36740;48.698;11.472;2022-12-08T11:39:13;21.35;;;12.85;;
50769;SDS011;36740;48.698;11.472;2022-12-08T11:41:59;25.75;;;17.83;;
50769;SDS011;36740;48.698;11.472;2022-12-08T11:44:53;18.55;;;15.30;;
50769;SDS011;36740;48.698;11.472;2022-12-08T11:51:04;17.10;;;11.98;;
50769;SDS011;36740;48.698;11.472;2022-12-08T11:57:07;20.35;;;13.13;;
50769;SDS011;36740;48.698;11.472;2022-12-08T11:59:55;19.25;;;13.00;;
50769;SDS011;36740;48.698;11.472;2022-12-08T12:02:43;20.48;;;16.05;;
50769;SDS011;36740;48.698;11.472;2022-12-08T12:05:33;17.67;;;13.00;;
50769;SDS011;36740;48.698;11.472;2022-12-08T12:08:46;25.00;;;16.52;;
50769;SDS011;36740;48.698;11.472;2022-12-08T12:20:45;22.02;;;15.43;;
50769;SDS011;36740;48.698;11.472;2022-12-08T12:26:18;32.33;;;20.65;;
50769;SDS011;36740;48.698;11.472;2022-12-08T12:29:05;31.73;;;21.58;;
50769;SDS011;36740;48.698;11.472;2022-12-08T12:31:53;30.35;;;20.35;;
50769;SDS011;36740;48.698;11.472;2022-12-08T12:37:35;32.22;;;22.90;;
50769;SDS011;36740;48.698;11.472;2022-12-08T12:40:22;27.02;;;20.27;;
50769;SDS011;36740;48.698;11.472;2022-12-08T12:57:56;25.70;;;21.33;;
50769;SDS011;36740;48.698;11.472;2022-12-08T13:00:42;34.08;;;21.08;;
50769;SDS011;36740;48.698;11.472;2022-12-08T13:03:28;40.63;;;24.23;;
50769;SDS011;36740;48.698;11.472;2022-12-08T13:06:14;25.85;;;21.20;;
50769;SDS011;36740;48.698;11.472;2022-12-08T13:09:05;36.70;;;21.83;;
50769;SDS011;36740;48.698;11.472;2022-12-08T13:11:53;29.65;;;20.63;;
50769;SDS011;36740;48.698;11.472;2022-12-08T13:14:47;39.28;;;19.60;;
50769;SDS011;36740;48.698;11.472;2022-12-08T13:17:34;26.35;;;16.98;;
50769;SDS011;36740;48.698;11.472;2022-12-08T13:20:22;23.65;;;17.65;;
50769;SDS011;36740;48.698;11.472;2022-12-08T13:23:24;29.02;;;17.20;;
50769;SDS011;36740;48.698;11.472;2022-12-08T13:31:56;34.88;;;18.70;;
50769;SDS011;36740;48.698;11.472;2022-12-08T13:34:50;29.67;;;20.50;;
50769;SDS011;36740;48.698;11.472;2022-12-08T13:37:45;30.70;;;22.60;;
50769;SDS011;36740;48.698;11.472;2022-12-08T13:40:32;32.20;;;20.92;;
50769;SDS011;36740;48.698;11.472;2022-12-08T13:46:08;45.70;;;22.67;;
50769;SDS011;36740;48.698;11.472;2022-12-08T13:48:53;28.52;;;19.13;;
50769;SDS011;36740;48.698;11.472;2022-12-08T13:51:44;37.20;;;23.45;;
50769;SDS011;36740;48.698;11.472;2022-12-08T13:54:34;43.33;;;23.50;;
50769;SDS011;36740;48.698;11.472;2022-12-08T14:00:17;36.10;;;22.63;;
50769;SDS011;36740;48.698;11.472;2022-12-08T14:03:03;33.55;;;19.65;;
50769;SDS011;36740;48.698;11.472;2022-12-08T14:05:49;47.08;;;22.77;;
50769;SDS011;36740;48.698;11.472;2022-12-08T14:08:34;29.83;;;19.90;;
50769;SDS011;36740;48.698;11.472;2022-12-08T14:11:25;29.02;;;18.33;;
50769;SDS011;36740;48.698;11.472;2022-12-08T14:14:22;30.13;;;19.40;;
50769;SDS011;36740;48.698;11.472;2022-12-08T14:17:20;27.13;;;19.98;;
50769;SDS011;36740;48.698;11.472;2022-12-08T14:22:55;34.97;;;19.90;;
50769;SDS011;36740;48.698;11.472;2022-12-08T14:25:40;45.90;;;22.25;;
50769;SDS011;36740;48.698;11.472;2022-12-08T14:28:31;29.17;;;21.42;;
50769;SDS011;36740;48.698;11.472;2022-12-08T14:31:17;40.92;;;24.40;;
50769;SDS011;36740;48.698;11.472;2022-12-08T14:34:03;26.20;;;19.88;;
50769;SDS011;36740;48.698;11.472;2022-12-08T14:36:49;27.42;;;20.38;;
50769;SDS011;36740;48.698;11.472;2022-12-08T14:39:34;30.80;;;18.95;;
50769;SDS011;36740;48.698;11.472;2022-12-08T14:42:24;38.22;;;19.77;;
50769;SDS011;36740;48.698;11.472;2022-12-08T14:45:11;30.67;;;21.92;;
50769;SDS011;36740;48.698;11.472;2022-12-08T14:47:57;38.05;;;21.58;;
50769;SDS011;36740;48.698;11.472;2022-12-08T14:56:47;33.08;;;21.98;;
50769;SDS011;36740;48.698;11.472;2022-12-08T14:59:36;36.45;;;21.52;;
50769;SDS011;36740;48.698;11.472;2022-12-08T15:02:24;31.08;;;18.85;;
50769;SDS011;36740;48.698;11.472;2022-12-08T15:05:14;31.90;;;20.33;;
50769;SDS011;36740;48.698;11.472;2022-12-08T15:08:01;34.78;;;19.27;;
50769;SDS011;36740;48.698;11.472;2022-12-08T15:13:52;30.27;;;18.85;;
50769;SDS011;36740;48.698;11.472;2022-12-08T15:16:40;25.88;;;18.48;;
50769;SDS011;36740;48.698;11.472;2022-12-08T15:19:31;27.67;;;18.08;;
50769;SDS011;36740;48.698;11.472;2022-12-08T15:22:19;34.20;;;19.02;;
50769;SDS011;36740;48.698;11.472;2022-12-08T15:25:07;25.55;;;18.10;;
50769;SDS011;36740;48.698;11.472;2022-12-08T15:27:55;22.60;;;17.13;;
50769;SDS011;36740;48.698;11.472;2022-12-08T15:30:42;22.60;;;14.38;;
50769;SDS011;36740;48.698;11.472;2022-12-08T15:33:27;29.10;;;17.63;;
50769;SDS011;36740;48.698;11.472;2022-12-08T15:36:13;24.67;;;15.43;;
50769;SDS011;36740;48.698;11.472;2022-12-08T15:38:59;32.85;;;21.02;;
50769;SDS011;36740;48.698;11.472;2022-12-08T15:41:44;27.38;;;20.33;;
50769;SDS011;36740;48.698;11.472;2022-12-08T15:44:30;29.08;;;20.30;;
50769;SDS011;36740;48.698;11.472;2022-12-08T15:47:20;29.50;;;17.35;;
50769;SDS011;36740;48.698;11.472;2022-12-08T15:50:06;32.25;;;20.23;;
50769;SDS011;36740;48.698;11.472;2022-12-08T15:52:52;29.70;;;18.40;;
50769;SDS011;36740;48.698;11.472;2022-12-08T15:55:38;33.45;;;20.25;;
50769;SDS011;36740;48.698;11.472;2022-12-08T15:58:23;28.45;;;19.27;;
50769;SDS011;36740;48.698;11.472;2022-12-08T16:01:09;25.92;;;17.30;;
50769;SDS011;36740;48.698;11.472;2022-12-08T16:03:55;23.23;;;18.05;;
50769;SDS011;36740;48.698;11.472;2022-12-08T16:06:44;33.40;;;19.70;;
50769;SDS011;36740;48.698;11.472;2022-12-08T16:09:40;32.28;;;22.23;;
50769;SDS011;36740;48.698;11.472;2022-12-08T16:12:26;33.72;;;19.50;;
50769;SDS011;36740;48.698;11.472;2022-12-08T16:15:31;30.58;;;16.77;;
50769;SDS011;36740;48.698;11.472;2022-12-08T16:18:20;29.02;;;18.85;;
50769;SDS011;36740;48.698;11.472;2022-12-08T16:21:08;24.65;;;19.40;;
50769;SDS011;36740;48.698;11.472;2022-12-08T16:23:54;27.55;;;16.63;;
50769;SDS011;36740;48.698;11.472;2022-12-08T16:26:40;24.02;;;18.60;;
50769;SDS011;36740;48.698;11.472;2022-12-08T16:29:26;38.15;;;19.80;;
50769;SDS011;36740;48.698;11.472;2022-12-08T16:32:11;23.13;;;16.85;;
50769;SDS011;36740;48.698;11.472;2022-12-08T16:34:57;19.23;;;17.15;;
50769;SDS011;36740;48.698;11.472;2022-12-08T16:37:43;29.95;;;15.32;;
50769;SDS011;36740;48.698;11.472;2022-12-08T16:40:28;25.98;;;17.55;;
50769;SDS011;36740;48.698;11.472;2022-12-08T16:43:14;25.30;;;17.05;;
50769;SDS011;36740;48.698;11.472;2022-12-08T16:46:00;23.27;;;14.73;;
50769;SDS011;36740;48.698;11.472;2022-12-08T16:48:46;26.92;;;18.58;;
50769;SDS011;36740;48.698;11.472;2022-12-08T16:51:32;33.08;;;18.88;;
50769;SDS011;36740;48.698;11.472;2022-12-08T16:54:17;32.70;;;19.75;;
50769;SDS011;36740;48.698;11.472;2022-12-08T16:57:03;30.05;;;19.05;;
50769;SDS011;36740;48.698;11.472;2022-12-08T16:59:48;30.58;;;20.35;;
50769;SDS011;36740;48.698;11.472;2022-12-08T17:02:34;29.25;;;19.10;;
50769;SDS011;36740;48.698;11.472;2022-12-08T17:05:21;33.05;;;19.60;;
50769;SDS011;36740;48.698;11.472;2022-12-08T17:08:07;37.58;;;20.80;;
50769;SDS011;36740;48.698;11.472;2022-12-08T17:10:52;36.33;;;21.83;;
50769;SDS011;36740;48.698;11.472;2022-12-08T17:13:51;38.17;;;16.90;;
50769;SDS011;36740;48.698;11.472;2022-12-08T17:16:37;27.27;;;18.15;;
50769;SDS011;36740;48.698;11.472;2022-12-08T17:19:23;43.22;;;21.40;;
50769;SDS011;36740;48.698;11.472;2022-12-08T17:22:08;35.70;;;24.10;;
50769;SDS011;36740;48.698;11.472;2022-12-08T17:24:54;27.80;;;17.75;;
50769;SDS011;36740;48.698;11.472;2022-12-08T17:27:40;35.60;;;22.33;;
50769;SDS011;36740;48.698;11.472;2022-12-08T17:30:26;28.13;;;18.95;;
50769;SDS011;36740;48.698;11.472;2022-12-08T17:33:12;33.03;;;20.00;;
50769;SDS011;36740;48.698;11.472;2022-12-08T17:35:57;36.78;;;23.40;;
50769;SDS011;36740;48.698;11.472;2022-12-08T17:38:43;24.20;;;18.23;;
50769;SDS011;36740;48.698;11.472;2022-12-08T17:41:29;26.73;;;18.75;;
50769;SDS011;36740;48.698;11.472;2022-12-08T17:44:15;31.27;;;21.65;;
50769;SDS011;36740;48.698;11.472;2022-12-08T17:47:02;36.33;;;20.80;;
50769;SDS011;36740;48.698;11.472;2022-12-08T17:49:48;34.38;;;25.27;;
50769;SDS011;36740;48.698;11.472;2022-12-08T17:52:34;44.50;;;30.95;;
50769;SDS011;36740;48.698;11.472;2022-12-08T17:55:22;42.97;;;34.40;;